Time;durP1;ratioP1;P1;durP2;ratioP2;P2;SDS_P1;SDS_P2;PMS_P1;PMS_P2;Temp;Humidity;BMP_temperature;BMP_pressure;BME280_temperature;BME280_humidity;BME280_pressure;Samples;Min_cycle;Max_cycle;Signal;HPM_P1;HPM_P2
2021/09/26 00:00:37;;;;;;;1999.90;999.90;;;17.90;99.90;;;;;;5016742;28;20513;-74
2021/09/26 00:03:06;;;;;;;1999.90;999.90;;;17.90;99.90;;;;;;5016304;28;20432;-74
2021/09/26 00:05:34;;;;;;;1999.90;999.90;;;17.90;99.90;;;;;;5030432;28;20506;-73
2021/09/26 00:08:02;;;;;;;1999.90;999.90;;;17.90;99.90;;;;;;5018431;28;20537;-74
2021/09/26 00:10:30;;;;;;;1999.90;999.90;;;17.90;99.90;;;;;;5036225;28;20470;-74
2021/09/26 00:12:58;;;;;;;451.83;335.83;;;17.90;99.90;;;;;;5036011;28;20426;-75
2021/09/26 00:15:27;;;;;;;1999.90;999.90;;;17.90;99.90;;;;;;5023973;28;20262;-73
2021/09/26 00:17:57;;;;;;;1999.90;999.90;;;17.90;99.90;;;;;;4998483;28;20468;-74
2021/09/26 00:20:26;;;;;;;100.60;92.32;;;17.90;99.90;;;;;;5006977;28;20446;-74
2021/09/26 00:22:55;;;;;;;1999.90;999.90;;;18.00;99.90;;;;;;5018145;28;20208;-74
2021/09/26 00:25:23;;;;;;;1999.90;999.90;;;18.00;99.90;;;;;;5017977;28;20477;-74
2021/09/26 00:27:51;;;;;;;1999.90;999.90;;;18.00;99.90;;;;;;5015296;28;20470;-73
2021/09/26 00:30:20;;;;;;;1999.90;999.90;;;18.00;99.90;;;;;;5035703;28;20801;-74
2021/09/26 00:32:48;;;;;;;1999.90;999.90;;;17.90;99.90;;;;;;5021539;28;20448;-73
2021/09/26 00:35:19;;;;;;;1999.90;999.90;;;17.90;99.90;;;;;;5016019;28;20455;-74
2021/09/26 00:37:47;;;;;;;1999.90;999.90;;;17.90;99.90;;;;;;4998239;28;20436;-74
2021/09/26 00:40:15;;;;;;;1999.90;999.90;;;17.90;99.90;;;;;;5015842;28;20460;-74
2021/09/26 00:42:43;;;;;;;1999.90;999.90;;;17.90;99.90;;;;;;5015730;28;20450;-74
2021/09/26 00:45:12;;;;;;;1999.90;999.90;;;17.90;99.90;;;;;;5032161;28;20467;-74
2021/09/26 00:47:40;;;;;;;1999.90;999.90;;;17.90;99.90;;;;;;5032300;28;20502;-73
2021/09/26 00:50:09;;;;;;;1999.90;999.90;;;17.90;99.90;;;;;;5004043;28;20486;-74
2021/09/26 00:52:41;;;;;;;53.08;48.40;;;17.90;99.90;;;;;;5002856;28;20443;-74
2021/09/26 00:55:10;;;;;;;1999.90;999.90;;;17.90;99.90;;;;;;5015485;28;20213;-74
2021/09/26 00:57:40;;;;;;;1999.90;999.90;;;17.90;99.90;;;;;;4997882;28;20436;-74
2021/09/26 01:00:11;;;;;;;1999.90;999.90;;;17.90;99.90;;;;;;4997759;28;20451;-75
2021/09/26 01:02:39;;;;;;;1999.90;999.90;;;17.90;99.90;;;;;;5027084;28;20582;-75
2021/09/26 01:05:11;;;;;;;1999.90;999.90;;;17.80;99.90;;;;;;5016384;28;20474;-76
2021/09/26 01:07:51;;;;;;;1999.90;999.90;;;17.80;99.90;;;;;;5026083;28;20467;-76
2021/09/26 01:10:28;;;;;;;1999.90;999.90;;;17.80;99.90;;;;;;5012794;28;20443;-76
2021/09/26 01:13:04;;;;;;;1999.90;999.90;;;17.80;99.90;;;;;;4995446;28;20490;-76
2021/09/26 01:15:54;;;;;;;1999.90;999.90;;;17.80;99.90;;;;;;5015253;28;20463;-76
2021/09/26 01:18:32;;;;;;;1999.90;999.90;;;17.70;99.90;;;;;;5033994;28;20533;-76
2021/09/26 01:21:06;;;;;;;1999.90;999.90;;;17.70;99.90;;;;;;5021829;28;20513;-76
2021/09/26 01:24:05;;;;;;;1999.90;999.90;;;17.70;99.90;;;;;;5015097;28;20424;-76
2021/09/26 01:26:43;;;;;;;29.73;27.15;;;17.70;99.90;;;;;;5013699;28;20541;-76
2021/09/26 01:29:29;;;;;;;1121.57;561.60;;;17.80;99.90;;;;;;4997950;28;20446;-76
2021/09/26 01:32:02;;;;;;;1827.60;736.10;;;17.80;99.90;;;;;;5000850;28;20835;-75
2021/09/26 01:34:37;;;;;;;1969.50;810.33;;;17.80;99.90;;;;;;5013774;28;20450;-75
2021/09/26 01:37:13;;;;;;;1944.23;767.30;;;17.70;99.90;;;;;;5016495;28;20516;-76
2021/09/26 01:39:47;;;;;;;1914.10;792.83;;;17.70;99.90;;;;;;5015836;28;20439;-76
2021/09/26 01:42:20;;;;;;;1941.83;756.33;;;17.70;99.90;;;;;;5034603;28;20427;-76
2021/09/26 01:44:55;;;;;;;1952.77;779.13;;;17.70;99.90;;;;;;5034405;28;20458;-75
2021/09/26 01:47:31;;;;;;;1584.17;757.67;;;17.70;99.90;;;;;;5005529;28;20471;-76
2021/09/26 01:50:02;;;;;;;1701.17;706.40;;;17.70;99.90;;;;;;5014398;28;20395;-76
2021/09/26 01:52:34;;;;;;;49.15;44.70;;;17.70;99.90;;;;;;4996461;28;20462;-76
2021/09/26 01:55:04;;;;;;;975.83;464.03;;;17.70;99.90;;;;;;5028669;28;20230;-75
2021/09/26 01:57:33;;;;;;;1300.90;548.50;;;17.70;99.90;;;;;;5015667;28;20537;-76
2021/09/26 02:00:04;;;;;;;31.10;28.50;;;17.70;99.90;;;;;;5015298;28;20437;-76
2021/09/26 02:02:42;;;;;;;730.47;310.53;;;17.70;99.90;;;;;;5033962;28;20235;-76
2021/09/26 02:05:12;;;;;;;812.43;370.53;;;17.80;99.90;;;;;;5034089;28;20508;-76
2021/09/26 02:07:43;;;;;;;623.80;344.67;;;17.70;99.90;;;;;;5033905;28;20539;-76
2021/09/26 02:10:13;;;;;;;1048.27;471.43;;;17.70;99.90;;;;;;5033947;28;20929;-76
2021/09/26 02:12:41;;;;;;;1036.77;484.57;;;17.70;99.90;;;;;;5020116;28;20558;-76
2021/09/26 02:15:13;;;;;;;1181.03;614.77;;;17.70;99.90;;;;;;5013701;28;20556;-74
2021/09/26 02:17:45;;;;;;;1528.80;675.87;;;17.70;99.90;;;;;;5010179;28;20466;-74
2021/09/26 02:20:14;;;;;;;1413.13;628.43;;;17.70;99.90;;;;;;5023438;28;20981;-74
2021/09/26 02:22:44;;;;;;;1400.80;660.57;;;17.70;99.90;;;;;;4996240;28;20884;-74
2021/09/26 02:25:14;;;;;;;1537.17;693.93;;;17.70;99.90;;;;;;5013867;28;20470;-74
2021/09/26 02:27:43;;;;;;;1853.23;785.40;;;17.70;99.90;;;;;;5004891;28;20467;-74
2021/09/26 02:30:13;;;;;;;1915.00;842.17;;;17.70;99.90;;;;;;5013650;28;20501;-74
2021/09/26 02:32:44;;;;;;;1900.67;783.00;;;17.70;99.90;;;;;;4999110;28;20451;-74
2021/09/26 02:35:13;;;;;;;1914.30;809.87;;;17.70;99.90;;;;;;5015770;28;20463;-74
2021/09/26 02:37:42;;;;;;;1783.13;748.47;;;17.70;99.90;;;;;;5033294;28;20857;-74
2021/09/26 02:40:11;;;;;;;1579.80;728.73;;;17.70;99.90;;;;;;5033475;28;20478;-74
2021/09/26 02:42:48;;;;;;;1776.13;797.77;;;17.70;99.90;;;;;;5016357;28;20886;-74
2021/09/26 02:45:23;;;;;;;1818.63;795.13;;;17.60;99.90;;;;;;5033612;28;20799;-74
2021/09/26 02:47:58;;;;;;;1808.53;797.73;;;17.60;99.90;;;;;;4991267;28;20472;-74
2021/09/26 02:50:27;;;;;;;1836.40;803.90;;;17.60;99.90;;;;;;5018785;28;20445;-73
2021/09/26 02:52:56;;;;;;;1804.67;805.20;;;17.60;99.90;;;;;;4995837;28;20522;-74
2021/09/26 02:55:26;;;;;;;1781.23;786.00;;;17.60;99.90;;;;;;5013378;28;20990;-74
2021/09/26 02:57:54;;;;;;;1999.90;907.40;;;17.60;99.90;;;;;;5013539;28;20527;-74
2021/09/26 03:00:31;;;;;;;30.05;27.45;;;17.60;99.90;;;;;;4995037;28;20443;-74
2021/09/26 03:03:09;;;;;;;1332.00;533.67;;;17.70;99.90;;;;;;5026688;28;20287;-73
2021/09/26 03:05:37;;;;;;;1869.60;856.07;;;17.70;99.90;;;;;;4995705;28;20476;-74
2021/09/26 03:08:06;;;;;;;1741.80;741.40;;;17.60;99.90;;;;;;4995630;28;20483;-75
2021/09/26 03:10:37;;;;;;;1651.47;691.67;;;17.60;99.90;;;;;;5013766;28;20527;-74
2021/09/26 03:13:05;;;;;;;1785.10;777.23;;;17.60;99.90;;;;;;4995639;28;20422;-75
2021/09/26 03:15:33;;;;;;;1704.30;773.30;;;17.60;99.90;;;;;;5013376;28;20486;-74
2021/09/26 03:18:02;;;;;;;1914.23;799.33;;;17.60;99.90;;;;;;4995309;28;20452;-74
2021/09/26 03:20:32;;;;;;;1884.50;756.93;;;17.60;99.90;;;;;;5020768;28;20418;-74
2021/09/26 03:23:00;;;;;;;1750.70;794.93;;;17.60;99.90;;;;;;5025717;28;20512;-74
2021/09/26 03:25:29;;;;;;;1871.10;822.87;;;17.50;99.90;;;;;;5033185;28;20556;-74
2021/09/26 03:27:57;;;;;;;1802.73;812.53;;;17.50;99.90;;;;;;5024514;28;20467;-74
2021/09/26 03:30:25;;;;;;;1917.63;887.70;;;17.50;99.90;;;;;;5012905;28;21020;-74
2021/09/26 03:32:54;;;;;;;64.47;59.38;;;17.50;99.90;;;;;;5012915;28;20432;-74
2021/09/26 03:35:22;;;;;;;1801.30;786.30;;;17.50;99.90;;;;;;4995384;28;20240;-73
2021/09/26 03:37:52;;;;;;;1968.37;854.43;;;17.50;99.90;;;;;;4995472;28;20459;-73
2021/09/26 03:40:20;;;;;;;26.65;24.25;;;17.50;99.90;;;;;;4994498;28;20957;-74
2021/09/26 03:42:48;;;;;;;995.23;501.80;;;17.60;99.90;;;;;;5013584;28;20217;-74
2021/09/26 03:45:16;;;;;;;1655.00;795.87;;;17.60;99.90;;;;;;5021602;28;20477;-73
2021/09/26 03:47:46;;;;;;;1775.50;835.17;;;17.60;99.90;;;;;;5017375;28;20494;-74
2021/09/26 03:50:14;;;;;;;1940.93;843.43;;;17.60;99.90;;;;;;5012920;28;20445;-73
2021/09/26 03:52:42;;;;;;;1999.90;924.90;;;17.50;99.90;;;;;;4995192;28;20832;-74
2021/09/26 03:55:13;;;;;;;1999.90;995.87;;;17.50;99.90;;;;;;4995178;28;20468;-74
2021/09/26 03:57:41;;;;;;;1999.90;999.90;;;17.50;99.90;;;;;;5013233;28;20519;-74
2021/09/26 04:00:13;;;;;;;1999.90;998.77;;;17.50;99.90;;;;;;4995204;28;20929;-74
2021/09/26 04:02:42;;;;;;;1999.90;999.90;;;17.50;99.90;;;;;;4997271;28;20814;-74
2021/09/26 04:05:11;;;;;;;1999.90;999.67;;;17.50;99.90;;;;;;5016452;28;20550;-74
2021/09/26 04:07:39;;;;;;;22.83;20.92;;;17.50;99.90;;;;;;5015548;28;20439;-74
2021/09/26 04:10:09;;;;;;;1936.60;792.73;;;17.50;99.90;;;;;;4998656;28;20299;-74
2021/09/26 04:12:40;;;;;;;270.25;240.90;;;17.50;99.90;;;;;;5016090;28;20489;-74
2021/09/26 04:15:09;;;;;;;1999.90;974.43;;;17.50;99.90;;;;;;5021386;28;20252;-73
2021/09/26 04:17:38;;;;;;;1999.90;999.90;;;17.50;99.90;;;;;;5012904;28;20631;-73
2021/09/26 04:20:08;;;;;;;1999.90;999.90;;;17.40;99.90;;;;;;5023771;28;20474;-73
2021/09/26 04:22:36;;;;;;;1999.90;999.90;;;17.40;99.90;;;;;;5018220;28;20540;-74
2021/09/26 04:25:06;;;;;;;1999.90;999.90;;;17.30;99.90;;;;;;5035816;28;20513;-74
2021/09/26 04:27:34;;;;;;;1999.90;999.90;;;17.30;99.90;;;;;;5018154;28;20455;-73
2021/09/26 04:30:04;;;;;;;1999.90;999.90;;;17.30;99.90;;;;;;5010471;28;20482;-74
2021/09/26 04:32:33;;;;;;;1999.90;999.90;;;17.20;99.90;;;;;;4998271;28;20447;-74
2021/09/26 04:35:01;;;;;;;1999.90;985.27;;;17.20;99.90;;;;;;4998303;28;20555;-74
2021/09/26 04:37:29;;;;;;;1999.90;980.57;;;17.20;99.90;;;;;;5015742;28;20490;-74
2021/09/26 04:39:57;;;;;;;1999.90;961.43;;;17.10;99.90;;;;;;5015697;28;20486;-75
2021/09/26 04:42:26;;;;;;;1999.90;980.30;;;17.10;99.90;;;;;;5015552;28;20455;-76
2021/09/26 04:44:54;;;;;;;1999.90;930.70;;;17.10;99.90;;;;;;4997939;28;20460;-76
2021/09/26 04:47:23;;;;;;;78.53;70.40;;;17.00;99.90;;;;;;4996978;28;20425;-75
2021/09/26 04:49:51;;;;;;;1999.90;999.90;;;17.10;99.90;;;;;;5017207;28;20205;-74
2021/09/26 04:52:19;;;;;;;1999.90;999.90;;;17.00;99.90;;;;;;5027425;28;20447;-75
2021/09/26 04:54:48;;;;;;;1999.90;984.27;;;17.00;99.90;;;;;;4997632;28;20841;-76
2021/09/26 04:57:16;;;;;;;1999.90;994.47;;;16.90;99.90;;;;;;5015422;28;20550;-76
2021/09/26 04:59:45;;;;;;;1999.90;925.27;;;16.90;99.90;;;;;;5015604;28;20483;-76
2021/09/26 05:02:13;;;;;;;1999.90;908.53;;;16.90;99.90;;;;;;4997818;28;20498;-76
2021/09/26 05:04:43;;;;;;;1999.90;729.20;;;16.80;99.90;;;;;;4998604;28;20460;-76
2021/09/26 05:07:12;;;;;;;1999.90;958.23;;;16.80;99.90;;;;;;5017539;28;20490;-76
2021/09/26 05:09:40;;;;;;;1999.90;661.70;;;16.70;99.90;;;;;;5018132;28;20961;-75
2021/09/26 05:12:09;;;;;;;1999.90;679.67;;;16.70;99.90;;;;;;4997384;28;20535;-74
2021/09/26 05:14:38;;;;;;;1313.38;839.78;;;16.60;99.90;;;;;;4995930;28;20465;-73
2021/09/26 05:17:06;;;;;;;1999.90;999.90;;;16.60;99.90;;;;;;5024004;28;20552;-73
2021/09/26 05:19:39;;;;;;;1999.90;820.53;;;16.60;99.90;;;;;;5035006;28;20423;-73
2021/09/26 05:22:08;;;;;;;40.60;37.27;;;16.60;99.90;;;;;;5015890;28;20471;-73
2021/09/26 05:24:36;;;;;;;1999.90;999.90;;;16.60;99.90;;;;;;5017040;28;20469;-73
2021/09/26 05:27:05;;;;;;;1999.90;999.90;;;16.60;99.90;;;;;;5016852;28;20504;-73
2021/09/26 05:29:33;;;;;;;1999.90;996.93;;;16.50;99.90;;;;;;5014615;28;20465;-72
2021/09/26 05:32:02;;;;;;;1999.90;968.73;;;16.50;99.90;;;;;;5028900;28;20501;-73
2021/09/26 05:34:30;;;;;;;1999.90;832.73;;;16.50;99.90;;;;;;5017002;28;20429;-73
2021/09/26 05:36:58;;;;;;;1999.90;817.73;;;16.40;99.90;;;;;;5016574;28;20430;-73
2021/09/26 05:39:28;;;;;;;1999.90;886.30;;;16.40;99.90;;;;;;5016576;28;20517;-73
2021/09/26 05:41:57;;;;;;;1999.90;836.40;;;16.30;99.90;;;;;;5016627;28;20462;-73
2021/09/26 05:44:25;;;;;;;1999.90;852.03;;;16.30;99.90;;;;;;5016607;28;21021;-73
2021/09/26 05:46:53;;;;;;;1999.90;887.17;;;16.30;99.90;;;;;;5014506;28;20494;-73
2021/09/26 05:49:21;;;;;;;385.95;345.27;;;16.30;99.90;;;;;;4996295;28;20546;-74
2021/09/26 05:51:49;;;;;;;1999.90;999.90;;;16.30;99.90;;;;;;5011273;28;20212;-75
2021/09/26 05:54:19;;;;;;;1999.90;978.47;;;16.30;99.90;;;;;;5015236;28;20943;-75
2021/09/26 05:56:49;;;;;;;20.65;18.98;;;16.20;99.90;;;;;;4995416;28;20440;-75
2021/09/26 05:59:17;;;;;;;1999.90;999.90;;;16.30;99.90;;;;;;4996740;28;20189;-75
2021/09/26 06:01:45;;;;;;;1999.90;999.90;;;16.30;99.90;;;;;;5002890;28;20435;-76
2021/09/26 06:04:13;;;;;;;1999.90;999.90;;;16.20;99.90;;;;;;5016913;28;20443;-76
2021/09/26 06:06:43;;;;;;;1999.90;967.80;;;16.20;99.90;;;;;;5023557;28;20471;-75
2021/09/26 06:09:12;;;;;;;1999.90;970.77;;;16.20;99.90;;;;;;5014218;28;20507;-76
2021/09/26 06:11:40;;;;;;;1999.90;916.13;;;16.20;99.90;;;;;;4996272;28;20546;-76
2021/09/26 06:14:09;;;;;;;1999.90;942.67;;;16.20;99.90;;;;;;5014039;28;20421;-76
2021/09/26 06:16:38;;;;;;;1999.90;841.00;;;16.20;99.90;;;;;;4996587;28;20990;-76
2021/09/26 06:19:08;;;;;;;1999.90;879.73;;;16.30;99.90;;;;;;4997166;28;20441;-76
2021/09/26 06:21:36;;;;;;;1999.90;846.47;;;16.30;99.90;;;;;;4996494;28;20440;-76
2021/09/26 06:24:04;;;;;;;350.30;318.75;;;16.40;99.90;;;;;;5013369;28;20437;-76
2021/09/26 06:26:32;;;;;;;1999.90;992.77;;;16.60;99.90;;;;;;5013309;28;20699;-76
2021/09/26 06:29:01;;;;;;;1999.90;993.93;;;16.60;99.90;;;;;;5013519;28;20452;-76
2021/09/26 06:31:30;;;;;;;40.22;37.13;;;16.70;99.90;;;;;;5012420;28;20424;-76
2021/09/26 06:33:58;;;;;;;1999.90;999.83;;;16.70;99.90;;;;;;5014035;28;20649;-76
2021/09/26 06:36:26;;;;;;;1999.90;976.60;;;16.70;99.90;;;;;;4996090;28;20464;-76
2021/09/26 06:38:55;;;;;;;1999.90;770.63;;;16.70;99.90;;;;;;5013691;28;20469;-76
2021/09/26 06:41:23;;;;;;;1999.90;710.90;;;16.70;99.90;;;;;;4995905;28;20430;-76
2021/09/26 06:43:52;;;;;;;1999.90;571.43;;;16.60;99.90;;;;;;4995776;28;20947;-76
2021/09/26 06:46:20;;;;;;;1999.90;669.27;;;16.60;99.90;;;;;;4996370;28;20479;-75
2021/09/26 06:48:53;;;;;;;1999.90;676.07;;;16.60;99.90;;;;;;4993795;28;20529;-77
2021/09/26 06:51:25;;;;;;;1999.90;572.53;;;16.50;99.90;;;;;;4994089;28;20503;-78
2021/09/26 06:53:53;;;;;;;1999.90;613.10;;;16.50;99.90;;;;;;4994100;28;20444;-78
2021/09/26 06:56:21;;;;;;;1999.90;603.37;;;16.50;99.90;;;;;;4975912;28;20472;-78
2021/09/26 06:58:49;;;;;;;1999.90;999.90;;;16.50;99.90;;;;;;4976199;28;20456;-77
2021/09/26 07:01:17;;;;;;;1999.90;681.63;;;16.50;99.90;;;;;;4988107;28;20222;-77
2021/09/26 07:03:46;;;;;;;1999.90;768.57;;;16.50;99.90;;;;;;5033058;28;20422;-77
2021/09/26 07:06:15;;;;;;;49.05;45.22;;;16.50;99.90;;;;;;4991269;28;20540;-77
2021/09/26 07:08:44;;;;;;;1999.90;999.90;;;16.60;99.90;;;;;;4993775;28;20196;-77
2021/09/26 07:11:12;;;;;;;1999.90;999.90;;;16.60;99.90;;;;;;4992374;28;20469;-77
2021/09/26 07:13:40;;;;;;;1999.90;993.27;;;16.60;99.90;;;;;;4992406;28;20423;-77
2021/09/26 07:16:08;;;;;;;1999.90;770.37;;;16.60;99.90;;;;;;4992377;28;20973;-75
2021/09/26 07:18:36;;;;;;;1999.90;924.00;;;16.60;99.90;;;;;;4976346;28;20801;-75
2021/09/26 07:21:04;;;;;;;1999.90;875.63;;;16.60;99.90;;;;;;4993879;28;20484;-75
2021/09/26 07:23:34;;;;;;;1999.90;953.40;;;16.60;99.90;;;;;;4992561;28;20447;-77
2021/09/26 07:26:02;;;;;;;1999.90;884.30;;;16.60;99.90;;;;;;4992407;28;20463;-77
2021/09/26 07:28:31;;;;;;;1999.90;704.87;;;16.60;99.90;;;;;;4992455;28;20456;-77
2021/09/26 07:30:59;;;;;;;1999.90;812.00;;;16.60;99.90;;;;;;4992127;28;21028;-78
2021/09/26 07:33:27;;;;;;;1999.90;864.63;;;16.70;99.90;;;;;;4992272;28;20420;-78
2021/09/26 07:35:55;;;;;;;1999.90;842.97;;;16.70;99.90;;;;;;4992962;28;20480;-78
2021/09/26 07:38:23;;;;;;;1999.90;739.90;;;16.70;99.90;;;;;;4979164;28;20923;-77
2021/09/26 07:40:53;;;;;;;110.05;100.00;;;16.70;99.90;;;;;;4995259;28;20435;-78
2021/09/26 07:43:21;;;;;;;1999.90;999.13;;;16.80;99.90;;;;;;4997646;28;20190;-78
2021/09/26 07:45:57;;;;;;;1999.90;974.83;;;16.80;99.90;;;;;;4997328;28;20485;-77
2021/09/26 07:48:25;;;;;;;1999.90;786.00;;;16.90;99.90;;;;;;4995849;28;20522;-77
2021/09/26 07:50:54;;;;;;;1999.90;738.57;;;16.90;99.90;;;;;;4999988;28;20562;-79
2021/09/26 07:53:22;;;;;;;1999.90;812.90;;;17.00;99.90;;;;;;4999235;28;20535;-80
2021/09/26 07:55:51;;;;;;;1999.90;656.00;;;17.00;99.90;;;;;;4981745;28;21003;-80
2021/09/26 07:58:20;;;;;;;1999.90;479.50;;;17.20;99.90;;;;;;4999221;28;20532;-80
2021/09/26 08:00:49;;;;;;;1999.90;797.87;;;17.30;99.90;;;;;;5019034;28;20410;-83
2021/09/26 08:03:17;;;;;;;1841.23;256.47;;;17.40;99.90;;;;;;5037637;28;20447;-80
2021/09/26 08:05:45;;;;;;;1677.27;701.90;;;17.60;99.90;;;;;;5038800;28;20429;-82
2021/09/26 08:08:14;;;;;;;1804.73;713.00;;;17.60;99.90;;;;;;5021115;28;20877;-83
2021/09/26 08:10:44;;;;;;;1999.90;999.90;;;17.80;99.90;;;;;;5019501;28;20532;-79
2021/09/26 08:13:17;;;;;;;1354.30;395.07;;;18.00;99.90;;;;;;5020065;28;20216;-79
2021/09/26 08:15:47;;;;;;;1999.90;999.90;;;18.10;99.90;;;;;;5013445;28;20490;-79
2021/09/26 08:18:15;;;;;;;1999.90;999.90;;;18.30;99.90;;;;;;5001149;28;20207;-80
2021/09/26 08:20:45;;;;;;;1999.90;999.90;;;18.50;99.90;;;;;;5000406;28;20454;-79
2021/09/26 08:23:13;;;;;;;1999.90;999.90;;;18.50;99.90;;;;;;5018166;28;20443;-79
2021/09/26 08:25:44;;;;;;;1999.90;999.90;;;18.70;99.90;;;;;;5018529;28;20838;-81
2021/09/26 08:29:46;;;;;;;1999.90;999.90;;;18.80;99.90;;;;;;4942667;29;20483;-79
2021/09/26 08:32:17;;;;;;;1999.90;999.90;;;18.90;99.90;;;;;;4929032;29;20491;-82
2021/09/26 08:34:50;;;;;;;1999.90;999.90;;;19.10;99.90;;;;;;4923002;29;20456;-81
2021/09/26 08:37:28;;;;;;;1999.90;760.27;;;19.20;99.90;;;;;;4939136;29;20859;-81
2021/09/26 08:40:04;;;;;;;1999.90;999.90;;;19.30;99.90;;;;;;4938840;29;20447;-81
2021/09/26 08:42:39;;;;;;;1999.90;650.93;;;19.40;99.90;;;;;;4939223;29;20955;-81
2021/09/26 08:45:12;;;;;;;1999.90;999.90;;;19.50;99.90;;;;;;4983843;28;20468;-81
2021/09/26 08:47:53;;;;;;;1999.90;949.23;;;19.70;99.90;;;;;;5018054;28;20586;-82
2021/09/26 08:50:28;;;;;;;1999.90;977.50;;;19.80;99.90;;;;;;5003615;28;20479;-81
2021/09/26 08:52:59;;;;;;;1999.90;999.90;;;19.80;99.90;;;;;;5020820;28;20445;-81
2021/09/26 08:55:30;;;;;;;1999.90;926.07;;;19.90;99.90;;;;;;5020669;28;20570;-81
2021/09/26 08:57:59;;;;;;;1999.90;856.73;;;20.00;99.90;;;;;;5021370;28;20787;-81
2021/09/26 09:00:30;;;;;;;1999.90;844.47;;;20.00;99.90;;;;;;5021577;28;20533;-81
2021/09/26 09:03:02;;;;;;;1999.90;867.23;;;20.10;99.90;;;;;;5034184;28;20459;-83
2021/09/26 09:05:35;;;;;;;1999.90;930.60;;;20.20;99.90;;;;;;5022434;28;20478;-82
2021/09/26 09:08:07;;;;;;;1999.90;949.50;;;20.20;99.90;;;;;;5037465;28;21077;-82
2021/09/26 09:10:44;;;;;;;1999.90;880.07;;;20.30;99.90;;;;;;5020621;28;20466;-82
2021/09/26 09:13:14;;;;;;;1999.90;909.83;;;20.30;99.90;;;;;;5004778;28;20970;-82
2021/09/26 09:15:59;;;;;;;1999.90;915.73;;;20.30;99.90;;;;;;5017289;28;20478;-76
2021/09/26 09:18:50;;;;;;;1999.90;954.25;;;20.30;99.90;;;;;;5014810;28;20473;-77
2021/09/26 09:21:33;;;;;;;1999.90;910.03;;;20.30;99.90;;;;;;5013297;28;20290;-77
2021/09/26 09:24:25;;;;;;;1999.90;854.93;;;20.30;99.90;;;;;;5034088;28;20411;-77
2021/09/26 09:26:54;;;;;;;1999.90;999.90;;;20.40;99.90;;;;;;4999512;28;20437;-77
2021/09/26 09:29:24;;;;;;;1999.90;999.90;;;20.40;99.90;;;;;;5016835;28;20730;-76
2021/09/26 09:31:53;;;;;;;1999.90;999.90;;;20.50;99.90;;;;;;5016684;28;21060;-77
2021/09/26 09:34:35;;;;;;;1999.90;993.73;;;20.50;99.90;;;;;;5034730;28;20481;-77
2021/09/26 09:37:11;;;;;;;1999.90;947.83;;;20.50;99.90;;;;;;4995138;28;20475;-77
2021/09/26 09:39:40;;;;;;;1999.90;985.20;;;20.50;99.90;;;;;;5005187;28;20555;-77
2021/09/26 09:42:19;;;;;;;1999.90;937.93;;;20.50;99.90;;;;;;4996955;28;20917;-77
2021/09/26 09:44:48;;;;;;;1999.90;941.37;;;20.50;99.90;;;;;;5014449;28;20420;-77
2021/09/26 09:47:21;;;;;;;1999.90;919.67;;;20.50;99.90;;;;;;4996866;28;20455;-77
2021/09/26 09:49:59;;;;;;;1999.90;933.17;;;20.50;99.90;;;;;;5014754;28;20451;-77
2021/09/26 09:52:41;;;;;;;1999.90;780.97;;;20.50;99.90;;;;;;5014275;28;20442;-77
2021/09/26 09:55:15;;;;;;;1999.90;940.43;;;20.60;99.90;;;;;;5017167;28;20497;-77
2021/09/26 09:57:43;;;;;;;1999.90;970.03;;;20.60;99.90;;;;;;5031928;28;20809;-77
2021/09/26 10:00:16;;;;;;;1999.90;999.90;;;20.60;99.90;;;;;;5032573;28;20449;-77
2021/09/26 10:02:44;;;;;;;1999.90;824.27;;;20.80;99.90;;;;;;5020997;28;20210;-77
2021/09/26 10:05:33;;;;;;;799.20;376.80;;;20.80;99.90;;;;;;4996667;28;20471;-77
2021/09/26 10:08:02;;;;;;;1999.90;879.63;;;20.80;99.90;;;;;;4996685;28;20451;-77
2021/09/26 10:10:34;;;;;;;1999.90;973.60;;;20.90;99.90;;;;;;4996494;28;20462;-77
2021/09/26 10:13:10;;;;;;;1999.90;813.83;;;20.90;99.90;;;;;;5014207;28;20935;-77
2021/09/26 10:15:39;;;;;;;1999.90;923.53;;;20.90;99.90;;;;;;4996227;28;20924;-77
2021/09/26 10:18:07;;;;;;;1999.90;704.93;;;21.00;99.90;;;;;;5026973;28;20463;-77
2021/09/26 10:20:37;;;;;;;1977.20;685.67;;;21.00;99.90;;;;;;5003994;28;20563;-77
2021/09/26 10:23:05;;;;;;;1896.67;667.10;;;21.10;99.90;;;;;;5015898;28;20443;-77
2021/09/26 10:25:33;;;;;;;1999.90;999.90;;;21.10;99.90;;;;;;5033398;28;20440;-77
2021/09/26 10:28:02;;;;;;;1999.90;961.77;;;21.10;99.90;;;;;;5015981;28;20203;-77
2021/09/26 10:30:30;;;;;;;1991.67;680.30;;;21.20;99.90;;;;;;5015751;28;20822;-77
2021/09/26 10:32:59;;;;;;;1999.90;858.88;;;21.30;99.90;;;;;;5007000;28;20441;-77
2021/09/26 10:35:28;;;;;;;320.13;171.30;;;21.40;99.90;;;;;;5033408;28;20218;-78
2021/09/26 10:37:57;;;;;;;580.17;318.10;;;21.50;99.90;;;;;;5015794;28;20816;-77
2021/09/26 10:40:26;;;;;;;679.67;315.63;;;21.50;99.90;;;;;;5015711;28;20526;-78
2021/09/26 10:42:54;;;;;;;1118.23;399.37;;;21.50;99.90;;;;;;5015741;28;20450;-78
2021/09/26 10:45:27;;;;;;;1882.10;656.87;;;21.50;99.90;;;;;;5033408;28;20451;-78
2021/09/26 10:47:56;;;;;;;839.00;323.97;;;21.50;99.90;;;;;;5008371;28;20458;-75
2021/09/26 10:50:35;;;;;;;1371.03;508.20;;;21.50;99.90;;;;;;4993168;28;20456;-75
2021/09/26 10:53:13;;;;;;;654.03;284.30;;;21.50;99.90;;;;;;5031607;28;20471;-75
2021/09/26 10:55:42;;;;;;;257.67;167.90;;;21.50;99.90;;;;;;5033317;28;20464;-75
2021/09/26 10:58:20;;;;;;;1999.90;999.90;;;21.50;99.90;;;;;;5015506;28;20496;-76
2021/09/26 11:00:55;;;;;;;1999.90;698.87;;;21.50;99.90;;;;;;5015491;28;20215;-76
2021/09/26 11:03:34;;;;;;;1999.90;825.40;;;21.60;99.90;;;;;;5012432;28;20494;-78
2021/09/26 11:06:23;;;;;;;1999.90;999.90;;;21.70;99.90;;;;;;4975341;28;20460;-78
2021/09/26 11:08:57;;;;;;;151.57;110.63;;;21.80;99.90;;;;;;4992626;28;20244;-78
2021/09/26 11:11:33;;;;;;;1999.90;794.37;;;21.90;99.90;;;;;;4976555;28;20445;-78
2021/09/26 11:14:02;;;;;;;97.93;87.57;;;22.00;99.90;;;;;;4996452;28;20452;-78
2021/09/26 11:16:49;;;;;;;42.70;34.10;;;22.00;99.90;;;;;;4980367;28;20480;-78
2021/09/26 11:19:18;;;;;;;22.27;19.77;;;22.10;99.90;;;;;;5017879;28;20832;-78
2021/09/26 11:21:58;;;;;;;11.00;10.00;;;22.10;99.90;;;;;;5017203;28;20447;-78
2021/09/26 11:24:59;;;;;;;17.60;16.23;;;22.10;99.90;;;;;;5017469;28;20531;-77
2021/09/26 11:27:40;;;;;;;36.73;33.73;;;22.10;99.90;;;;;;5018293;28;20830;-78
2021/09/26 11:30:17;;;;;;;914.15;374.38;;;22.20;99.90;;;;;;5000458;28;20806;-78
2021/09/26 11:32:56;;;;;;;19.00;17.60;;;22.20;99.90;;;;;;4999437;28;20208;-78
2021/09/26 11:35:27;;;;;;;45.27;41.53;;;22.20;99.90;;;;;;5020683;28;20569;-78
2021/09/26 11:37:59;;;;;;;1999.90;999.90;;;22.20;99.90;;;;;;5018425;28;20440;-78
2021/09/26 11:40:49;;;;;;;12.80;11.60;;;22.30;99.90;;;;;;5037090;28;20539;-78
2021/09/26 11:43:19;;;;;;;185.83;130.17;;;22.30;99.90;;;;;;5019691;28;20466;-78
2021/09/26 11:45:47;;;;;;;15.50;14.30;;;22.30;99.90;;;;;;5019152;28;20467;-78
2021/09/26 11:48:16;;;;;;;67.43;61.50;;;22.20;99.90;;;;;;5019780;28;20459;-78
2021/09/26 11:50:46;;;;;;;78.70;72.27;;;22.20;99.90;;;;;;5033118;28;20524;-78
2021/09/26 11:53:16;;;;;;;59.40;54.00;;;22.30;99.90;;;;;;5037417;28;20455;-78
2021/09/26 11:55:45;;;;;;;97.13;82.47;;;22.30;99.90;;;;;;5001657;28;20494;-78
2021/09/26 11:58:14;;;;;;;389.57;285.67;;;22.30;99.90;;;;;;4999319;28;20518;-78
2021/09/26 12:00:44;;;;;;;138.23;107.77;;;22.30;99.90;;;;;;4999345;28;20448;-78
2021/09/26 12:03:18;;;;;;;1999.90;933.63;;;22.40;99.90;;;;;;5016406;28;20549;-78
2021/09/26 12:05:47;;;;;;;453.97;244.00;;;22.40;99.90;;;;;;5018455;28;20255;-78
2021/09/26 12:08:15;;;;;;;58.63;53.13;;;22.50;99.90;;;;;;5012304;28;20539;-78
2021/09/26 12:10:45;;;;;;;40.00;36.50;;;22.50;99.90;;;;;;4998552;28;20523;-75
2021/09/26 12:13:20;;;;;;;43.20;39.23;;;22.50;99.90;;;;;;5027007;28;20471;-76
2021/09/26 12:15:50;;;;;;;132.43;97.63;;;22.50;99.90;;;;;;5018320;28;20827;-75
2021/09/26 12:18:23;;;;;;;86.20;77.43;;;22.50;99.90;;;;;;5019288;28;20873;-76
2021/09/26 12:21:04;;;;;;;63.40;49.27;;;22.60;99.90;;;;;;5016030;28;20523;-76
2021/09/26 12:23:47;;;;;;;115.63;97.53;;;22.60;99.90;;;;;;5015371;28;20426;-76